Time;durP1;ratioP1;P1;durP2;ratioP2;P2;SDS_P1;SDS_P2;PMS_P1;PMS_P2;Temp;Humidity;BMP_temperature;BMP_pressure;BME280_temperature;BME280_humidity;BME280_pressure;Samples;Min_cycle;Max_cycle;Signal;HPM_P1;HPM_P2
2021/07/24 00:01:18;;;;;;;;;0.00;0.00;;;;;31.12;64.04;100094.38;5042287;28;45268;-72
2021/07/24 00:03:44;;;;;;;;;0.00;0.00;;;;;31.13;63.59;100083.25;5042362;28;45339;-72
2021/07/24 00:06:09;;;;;;;;;0.00;0.00;;;;;31.02;64.19;100078.91;5041938;28;47384;-72
2021/07/24 00:08:35;;;;;;;;;0.00;0.00;;;;;30.92;64.75;100087.84;5042184;28;45322;-73
2021/07/24 00:11:05;;;;;;;;;0.00;0.00;;;;;30.92;64.67;100090.56;5042205;28;45361;-73
2021/07/24 00:13:35;;;;;;;;;0.00;0.00;;;;;30.80;65.58;100101.66;5042352;28;45379;-72
2021/07/24 00:16:02;;;;;;;;;0.00;0.00;;;;;30.78;65.51;100103.00;5041569;28;45343;-70
2021/07/24 00:18:27;;;;;;;;;0.00;0.00;;;;;30.76;67.09;100097.03;5028339;28;45244;-77
2021/07/24 00:20:52;;;;;;;;;0.00;0.00;;;;;30.80;65.99;100092.69;5042064;28;45228;-71
2021/07/24 00:23:18;;;;;;;;;0.00;0.00;;;;;30.71;66.45;100094.28;5042221;28;45304;-72
2021/07/24 00:25:43;;;;;;;;;0.00;0.00;;;;;30.81;65.54;100076.16;5041991;28;45263;-72
2021/07/24 00:28:09;;;;;;;;;0.00;0.00;;;;;30.79;65.69;100074.78;5042096;28;45225;-69
2021/07/24 00:30:42;;;;;;;;;0.00;0.00;;;;;30.78;66.86;100089.44;5041750;28;45301;-70
2021/07/24 00:33:08;;;;;;;;;0.00;0.00;;;;;30.74;66.97;100086.44;5041822;28;45410;-71
2021/07/24 00:35:34;;;;;;;;;0.00;0.00;;;;;30.71;66.98;100086.97;5041510;28;45620;-72
2021/07/24 00:38:01;;;;;;;;;0.00;0.00;;;;;30.60;66.81;100071.78;5041573;28;45278;-72
2021/07/24 00:40:29;;;;;;;;;0.00;0.00;;;;;30.69;66.94;100093.75;5041671;28;45505;-72
2021/07/24 00:42:57;;;;;;;;;0.00;0.00;;;;;30.64;68.17;100089.94;5041841;28;45348;-71
2021/07/24 00:45:25;;;;;;;;;0.00;0.00;;;;;30.67;67.55;100094.03;5041437;28;45529;-72
2021/07/24 00:47:55;;;;;;;;;0.00;0.00;;;;;30.64;67.55;100084.53;5023715;28;45721;-72
2021/07/24 00:50:21;;;;;;;;;0.00;0.00;;;;;30.65;67.79;100088.88;5041760;28;45321;-73
2021/07/24 00:52:48;;;;;;;;;3.00;0.00;;;;;30.62;67.73;100102.94;5041434;28;45371;-72
2021/07/24 00:55:15;;;;;;;;;0.00;0.00;;;;;30.56;67.89;100106.75;5041315;28;46325;-73
2021/07/24 00:57:44;;;;;;;;;1.00;1.00;;;;;30.49;68.94;100098.03;5041148;28;45387;-73
2021/07/24 01:00:10;;;;;;;;;0.00;0.00;;;;;30.43;68.52;100094.53;5040255;28;45423;-71
2021/07/24 01:02:37;;;;;;;;;0.00;0.00;;;;;30.42;69.16;100101.00;5040975;28;45332;-71
2021/07/24 01:05:04;;;;;;;;;0.00;0.00;;;;;30.37;69.51;100108.31;5041242;28;46146;-77
2021/07/24 01:07:33;;;;;;;;;0.00;0.00;;;;;30.40;69.68;100103.16;5023194;28;45312;-70
2021/07/24 01:09:59;;;;;;;;;0.00;0.00;;;;;30.38;69.40;100091.78;5023491;28;45284;-71
2021/07/24 01:12:24;;;;;;;;;0.00;0.00;;;;;30.37;69.80;100081.22;5041256;28;45316;-72
2021/07/24 01:14:50;;;;;;;;;0.00;0.00;;;;;30.37;69.88;100073.91;5041188;28;45363;-72
2021/07/24 01:17:16;;;;;;;;;0.00;0.00;;;;;30.34;70.64;100071.72;5034801;28;45464;-71
2021/07/24 01:19:41;;;;;;;;;0.25;0.25;;;;;30.35;70.29;100062.53;5034180;28;45332;-71
2021/07/24 01:22:06;;;;;;;;;0.00;0.00;;;;;30.34;70.95;100062.78;5041321;28;45173;-72
2021/07/24 01:24:32;;;;;;;;;0.00;0.00;;;;;30.36;71.32;100071.47;5023166;28;47063;-72
2021/07/24 01:26:57;;;;;;;;;0.00;0.00;;;;;30.31;71.17;100071.47;5041329;28;45292;-72
2021/07/24 01:29:22;;;;;;;;;0.00;0.00;;;;;30.33;72.16;100072.81;5041191;28;45365;-72
2021/07/24 01:31:48;;;;;;;;;0.00;0.00;;;;;30.32;72.04;100086.63;5040836;28;45760;-72
2021/07/24 01:34:14;;;;;;;;;0.00;0.00;;;;;30.36;71.94;100091.22;5022899;28;48118;-72
2021/07/24 01:36:39;;;;;;;;;0.00;0.00;;;;;30.26;72.73;100093.91;5040776;28;45280;-71
2021/07/24 01:39:07;;;;;;;;;0.00;0.00;;;;;30.37;71.86;100105.63;5022831;28;45236;-73
2021/07/24 01:41:32;;;;;;;;;1.00;0.00;;;;;30.36;73.01;100104.78;5040645;28;45416;-73
2021/07/24 01:43:57;;;;;;;;;0.00;0.00;;;;;30.40;73.21;100097.75;5040496;28;46434;-73
2021/07/24 01:46:24;;;;;;;;;0.00;0.00;;;;;30.43;76.95;100109.94;5022271;28;45414;-73
2021/07/24 01:54:33;;;;;;;;;0.00;0.00;;;;;30.32;79.56;100119.94;5040578;28;45355;-77
2021/07/24 01:57:06;;;;;;;;;0.00;0.00;;;;;30.31;80.17;100114.81;5003122;28;45429;-77
2021/07/24 01:59:37;;;;;;;;;0.00;0.00;;;;;30.26;80.67;100110.16;5055885;28;45251;-73
2021/07/24 02:02:03;;;;;;;;;0.00;0.00;;;;;30.23;81.94;100110.66;5022585;28;45618;-72
2021/07/24 02:04:33;;;;;;;;;0.00;0.00;;;;;30.20;81.41;100109.31;5040769;28;45393;-71
2021/07/24 02:06:58;;;;;;;;;0.00;0.00;;;;;30.18;81.42;100107.94;5040412;28;45287;-72
2021/07/24 02:09:23;;;;;;;;;0.00;0.00;;;;;30.08;83.47;100119.53;5040408;28;45421;-71
2021/07/24 02:11:51;;;;;;;;;0.00;0.00;;;;;30.07;83.83;100123.34;5040277;28;45601;-79
2021/07/24 02:14:16;;;;;;;;;0.00;0.00;;;;;30.03;84.13;100135.75;5040453;28;45441;-74
2021/07/24 02:16:41;;;;;;;;;0.00;0.00;;;;;29.88;86.56;100124.84;5042301;28;45337;-72
2021/07/24 02:19:07;;;;;;;;;0.00;0.00;;;;;29.84;86.34;100144.31;5023889;28;45423;-71
2021/07/24 02:21:32;;;;;;;;;0.00;0.00;;;;;29.79;86.45;100147.00;5038327;28;45474;-72
2021/07/24 02:23:58;;;;;;;;;0.00;0.00;;;;;29.67;86.87;100151.75;5025397;28;47100;-71
2021/07/24 02:26:24;;;;;;;;;0.00;0.00;;;;;29.67;87.36;100149.03;5043434;28;45371;-72
2021/07/24 02:28:49;;;;;;;;;0.00;0.00;;;;;29.75;88.16;100147.78;5043818;28;45252;-72
2021/07/24 02:31:15;;;;;;;;;0.00;0.00;;;;;29.71;86.81;100144.78;5043274;28;45450;-72
2021/07/24 02:33:40;;;;;;;;;0.00;0.00;;;;;29.68;87.40;100141.72;5043481;28;45510;-72
2021/07/24 02:36:05;;;;;;;;;0.00;0.00;;;;;29.67;86.64;100145.53;5043290;28;49699;-72
2021/07/24 02:38:31;;;;;;;;;0.00;0.00;;;;;29.67;87.41;100149.03;5043840;28;45257;-72
2021/07/24 02:40:56;;;;;;;;;0.00;0.00;;;;;29.70;86.71;100155.84;5043477;28;45411;-73
2021/07/24 02:43:21;;;;;;;;;0.00;0.00;;;;;29.70;87.25;100153.97;5043095;28;51861;-72
2021/07/24 02:45:47;;;;;;;;;0.00;0.00;;;;;29.67;86.63;100153.66;5042990;28;45265;-73
2021/07/24 02:48:12;;;;;;;;;0.00;0.00;;;;;29.63;87.10;100148.78;5043630;28;45482;-73
2021/07/24 02:50:37;;;;;;;;;0.00;0.00;;;;;29.55;87.26;100154.66;5043715;28;45478;-73
2021/07/24 02:53:04;;;;;;;;;0.00;0.00;;;;;29.54;87.43;100146.78;5043529;28;46099;-72
2021/07/24 02:55:29;;;;;;;;;0.00;0.00;;;;;29.48;85.79;100135.09;5025759;28;45328;-72
2021/07/24 02:57:54;;;;;;;;;0.00;0.00;;;;;29.40;86.28;100128.31;5043417;28;45456;-72
2021/07/24 03:00:20;;;;;;;;;0.00;0.00;;;;;29.29;86.26;100129.31;5043346;28;45225;-72
2021/07/24 03:02:45;;;;;;;;;0.00;0.00;;;;;29.11;86.57;100140.50;5042899;28;45448;-73
2021/07/24 03:05:11;;;;;;;;;0.00;0.00;;;;;29.13;86.61;100146.44;5042837;28;50387;-72
2021/07/24 03:07:36;;;;;;;;;0.00;0.00;;;;;29.02;86.28;100137.41;5043397;28;45332;-73
2021/07/24 03:10:01;;;;;;;;;0.00;0.00;;;;;29.10;87.64;100141.56;5043457;28;45375;-73
2021/07/24 03:12:27;;;;;;;;;0.00;0.00;;;;;28.97;87.83;100132.75;5025114;28;46472;-73
2021/07/24 03:14:53;;;;;;;;;0.00;0.00;;;;;28.97;86.73;100148.97;5042921;28;45404;-73
2021/07/24 03:17:18;;;;;;;;;0.00;0.00;;;;;28.96;86.41;100160.88;5036181;28;45466;-73
2021/07/24 03:19:43;;;;;;;;;0.00;0.00;;;;;28.89;87.14;100172.97;5036562;28;45463;-72
2021/07/24 03:22:09;;;;;;;;;0.00;0.00;;;;;29.00;86.48;100180.09;5043118;28;46507;-72
2021/07/24 03:24:34;;;;;;;;;0.00;0.00;;;;;28.82;85.74;100176.66;5042972;28;45368;-72
2021/07/24 03:26:59;;;;;;;;;0.00;0.00;;;;;28.91;86.81;100170.81;5042533;28;45356;-72
2021/07/24 03:29:25;;;;;;;;;0.00;0.00;;;;;28.73;87.35;100175.50;5043003;28;45836;-72
2021/07/24 03:31:50;;;;;;;;;0.00;0.00;;;;;28.69;87.39;100177.06;5042340;28;46329;-72
2021/07/24 03:34:15;;;;;;;;;0.00;0.00;;;;;28.74;88.91;100179.81;5042900;28;45257;-72
2021/07/24 03:36:41;;;;;;;;;0.00;0.00;;;;;28.66;87.45;100177.59;5042771;28;45249;-71
2021/07/24 03:39:06;;;;;;;;;0.00;0.00;;;;;28.62;88.03;100196.19;5042682;28;45316;-72
2021/07/24 03:41:35;;;;;;;;;0.00;0.00;;;;;28.63;88.28;100208.59;5042325;28;45617;-72
2021/07/24 03:44:01;;;;;;;;;0.00;0.00;;;;;28.54;88.09;100214.72;5042481;28;45194;-72
2021/07/24 03:46:26;;;;;;;;;0.00;0.00;;;;;28.51;89.39;100218.75;5024692;28;45355;-72
2021/07/24 03:48:54;;;;;;;;;0.00;0.00;;;;;28.49;88.38;100226.28;5042734;28;45561;-72
2021/07/24 03:51:19;;;;;;;;;0.00;0.00;;;;;28.42;89.94;100221.03;5042271;28;46597;-73
2021/07/24 03:53:45;;;;;;;;;0.00;0.00;;;;;28.36;90.63;100238.22;5042249;28;45296;-72
2021/07/24 03:56:19;;;;;;;;;0.00;0.00;;;;;28.38;91.26;100249.59;5042414;28;45380;-72
2021/07/24 03:58:46;;;;;;;;;0.00;0.00;;;;;28.32;89.91;100247.88;5042560;28;45478;-72
2021/07/24 04:01:11;;;;;;;;;0.00;0.00;;;;;28.27;90.34;100250.50;5041933;28;46360;-72
2021/07/24 04:03:37;;;;;;;;;0.00;0.00;;;;;28.24;89.11;100251.00;5042361;28;45213;-72
2021/07/24 04:06:04;;;;;;;;;0.00;0.00;;;;;28.25;89.83;100249.97;5042275;28;45251;-72
2021/07/24 04:08:31;;;;;;;;;0.00;0.00;;;;;28.23;89.38;100250.19;5042602;28;45438;-72
2021/07/24 04:10:56;;;;;;;;;0.00;0.00;;;;;28.17;89.45;100259.28;5041930;28;46521;-73
2021/07/24 04:13:22;;;;;;;;;0.00;0.00;;;;;28.12;90.13;100275.41;5042033;28;45309;-78
2021/07/24 04:15:47;;;;;;;;;0.00;0.00;;;;;28.07;89.98;100291.50;5042059;28;45311;-72
2021/07/24 04:18:12;;;;;;;;;0.00;0.00;;;;;28.06;90.33;100286.38;5029031;28;45470;-72
2021/07/24 04:20:40;;;;;;;;;0.00;0.00;;;;;28.01;91.31;100285.22;5042030;28;45458;-75
2021/07/24 04:23:05;;;;;;;;;0.00;0.00;;;;;27.99;93.10;100281.13;5042047;28;45268;-75
2021/07/24 04:25:31;;;;;;;;;0.00;0.00;;;;;27.91;91.18;100286.94;5042417;28;45410;-72
2021/07/24 04:27:56;;;;;;;;;0.00;0.00;;;;;27.88;91.20;100288.22;5042061;28;45248;-72
2021/07/24 04:30:22;;;;;;;;;0.00;0.00;;;;;27.85;90.98;100266.31;5041380;28;46506;-72
2021/07/24 04:32:47;;;;;;;;;0.00;0.00;;;;;27.85;93.68;100266.31;5041329;28;45505;-72
2021/07/24 04:35:12;;;;;;;;;0.00;0.00;;;;;27.86;92.24;100271.47;5041697;28;45482;-72
2021/07/24 04:37:38;;;;;;;;;0.00;0.00;;;;;27.85;93.00;100286.03;5023210;28;45642;-72
2021/07/24 04:40:04;;;;;;;;;0.00;0.00;;;;;27.78;92.77;100272.69;5041520;28;50618;-75
2021/07/24 04:42:31;;;;;;;;;0.00;0.00;;;;;27.76;93.89;100284.78;5041463;28;45509;-70
2021/07/24 04:44:56;;;;;;;;;0.00;0.00;;;;;27.68;94.00;100285.19;5041872;28;45387;-78
2021/07/24 04:47:21;;;;;;;;;0.00;0.00;;;;;27.68;92.97;100285.97;5041654;28;45288;-72
2021/07/24 04:49:51;;;;;;;;;0.00;0.00;;;;;27.56;94.66;100287.91;5041213;28;48574;-75
2021/07/24 04:52:18;;;;;;;;;0.00;0.00;;;;;27.59;95.24;100300.94;5041663;28;45251;-71
2021/07/24 04:54:45;;;;;;;;;0.00;0.00;;;;;27.57;95.21;100298.47;5041571;28;45252;-75
2021/07/24 04:57:11;;;;;;;;;0.00;0.00;;;;;27.54;93.61;100300.84;5041869;28;45186;-71
2021/07/24 04:59:46;;;;;;;;;0.00;0.00;;;;;27.49;95.70;100296.16;5041306;28;45430;-72
2021/07/24 05:02:12;;;;;;;;;0.00;0.00;;;;;27.49;94.68;100295.34;5039910;28;46019;-71
2021/07/24 05:04:38;;;;;;;;;0.00;0.00;;;;;27.49;94.49;100306.13;5041585;28;45390;-72
2021/07/24 05:07:03;;;;;;;;;0.00;0.00;;;;;27.42;95.89;100312.50;5041381;28;45311;-71
2021/07/24 05:09:29;;;;;;;;;0.00;0.00;;;;;27.38;96.17;100310.53;5041264;28;45391;-71
2021/07/24 05:11:54;;;;;;;;;0.00;0.00;;;;;27.36;100.00;100323.44;5041157;28;45359;-70
2021/07/24 05:14:19;;;;;;;;;0.00;0.00;;;;;27.39;96.68;100317.56;5041102;28;45344;-71
2021/07/24 05:16:44;;;;;;;;;0.00;0.00;;;;;27.33;96.75;100316.66;5031567;28;45634;-71
2021/07/24 05:19:10;;;;;;;;;0.00;0.00;;;;;27.23;99.00;100334.50;5030292;28;45304;-73
2021/07/24 05:21:35;;;;;;;;;0.00;0.00;;;;;27.19;100.00;100339.50;5041119;28;45467;-71
2021/07/24 05:24:00;;;;;;;;;0.00;0.00;;;;;27.23;97.87;100331.81;5041321;28;45321;-70
2021/07/24 05:26:26;;;;;;;;;0.00;0.00;;;;;27.18;98.55;100324.41;5041166;28;45269;-74
2021/07/24 05:28:51;;;;;;;;;0.00;0.00;;;;;27.23;97.00;100329.09;5040542;28;46350;-74
2021/07/24 05:31:18;;;;;;;;;0.00;0.00;;;;;27.27;97.93;100330.28;5039820;28;48121;-76
2021/07/24 05:33:43;;;;;;;;;0.00;0.00;;;;;27.29;98.38;100322.75;5022841;28;45241;-71
2021/07/24 05:36:09;;;;;;;;;0.00;0.00;;;;;27.33;97.39;100326.63;5041066;28;45322;-71
2021/07/24 05:38:34;;;;;;;;;0.00;0.00;;;;;27.34;96.71;100322.84;5023099;28;45473;-71
2021/07/24 05:41:00;;;;;;;;;0.00;0.00;;;;;27.33;99.35;100327.44;5040647;28;45217;-69
2021/07/24 05:43:25;;;;;;;;;0.25;0.00;;;;;27.38;98.47;100324.00;5040762;28;45493;-69
2021/07/24 05:45:51;;;;;;;;;0.00;0.00;;;;;27.51;98.21;100331.81;5022553;28;45482;-70
2021/07/24 05:48:17;;;;;;;;;0.00;0.00;;;;;27.51;98.65;100329.09;5040566;28;45467;-70
2021/07/24 05:50:42;;;;;;;;;0.00;0.00;;;;;27.60;99.78;100324.16;5042633;28;45316;-69
2021/07/24 05:53:07;;;;;;;;;0.00;0.00;;;;;27.67;97.21;100321.28;5026038;28;45342;-72
2021/07/24 05:55:33;;;;;;;;;0.00;0.00;;;;;27.60;97.39;100332.22;5044191;28;45355;-71
2021/07/24 05:57:58;;;;;;;;;0.00;0.00;;;;;27.46;97.30;100323.63;5043875;28;46297;-71
2021/07/24 06:00:23;;;;;;;;;0.00;0.00;;;;;27.40;98.60;100325.41;5045781;28;48548;-76
2021/07/24 06:02:49;;;;;;;;;0.00;0.00;;;;;27.40;97.16;100316.50;5040271;28;45397;-75
2021/07/24 06:05:14;;;;;;;;;0.00;0.00;;;;;27.42;98.76;100331.38;5043189;28;45317;-72
2021/07/24 06:07:39;;;;;;;;;0.00;0.00;;;;;27.50;99.85;100326.69;5044429;28;45403;-78
2021/07/24 06:10:05;;;;;;;;;0.00;0.00;;;;;27.65;98.58;100318.84;5035505;28;45434;-69
2021/07/24 06:12:30;;;;;;;;;0.00;0.00;;;;;27.89;96.64;100319.56;5032003;28;45422;-71
2021/07/24 06:14:56;;;;;;;;;0.00;0.00;;;;;28.35;95.92;100314.09;5043923;28;45372;-72
2021/07/24 06:17:21;;;;;;;;;0.00;0.00;;;;;28.91;92.48;100322.19;5041305;28;45477;-70
2021/07/24 06:19:46;;;;;;;;;0.00;0.00;;;;;29.36;91.68;100310.31;5031441;28;45530;-69
2021/07/24 06:22:11;;;;;;;;;0.00;0.00;;;;;29.68;89.03;100309.53;5033938;28;46846;-71
2021/07/24 06:24:37;;;;;;;;;0.00;0.00;;;;;29.88;86.72;100317.06;5040546;28;48973;-71
2021/07/24 06:27:03;;;;;;;;;6.00;6.00;;;;;30.08;86.62;100319.91;5039012;28;45269;-69
2021/07/24 06:29:28;;;;;;;;;0.00;0.00;;;;;30.22;85.90;100312.19;5036190;28;45292;-75
2021/07/24 06:31:53;;;;;;;;;0.00;0.00;;;;;30.46;84.24;100321.59;5043093;28;45310;-73
2021/07/24 06:34:19;;;;;;;;;0.00;0.00;;;;;30.71;84.59;100313.84;5041837;28;45217;-72
2021/07/24 06:36:44;;;;;;;;;0.00;0.00;;;;;30.99;81.96;100320.78;5032142;28;46187;-70
2021/07/24 06:39:09;;;;;;;;;0.00;0.00;;;;;31.20;81.32;100313.56;5029525;28;45229;-70
2021/07/24 06:41:38;;;;;;;;;0.00;0.00;;;;;31.50;80.25;100307.41;5034552;28;45291;-71
2021/07/24 06:44:04;;;;;;;;;0.00;0.00;;;;;31.48;79.03;100313.09;5041232;28;45320;-71
2021/07/24 06:46:29;;;;;;;;;0.00;0.00;;;;;31.35;78.21;100310.06;5042322;28;54473;-72
2021/07/24 06:48:54;;;;;;;;;0.00;0.00;;;;;31.18;78.05;100315.72;5030708;28;45419;-72
2021/07/24 06:51:20;;;;;;;;;0.00;0.00;;;;;31.00;78.40;100319.72;5042117;28;45491;-74
2021/07/24 06:53:45;;;;;;;;;1.00;1.00;;;;;30.86;78.67;100313.97;5041515;28;45333;-72
2021/07/24 06:56:11;;;;;;;;;0.00;0.00;;;;;30.80;77.77;100317.69;5037660;28;45615;-81
2021/07/24 06:58:36;;;;;;;;;0.00;0.00;;;;;30.61;77.61;100328.19;5029446;28;45448;-70
2021/07/24 07:01:05;;;;;;;;;0.00;0.00;;;;;30.43;78.28;100330.25;5040137;28;45582;-73
2021/07/24 07:03:30;;;;;;;;;0.00;0.00;;;;;30.54;76.87;100324.88;5041062;28;45419;-75
2021/07/24 07:05:55;;;;;;;;;0.00;0.00;;;;;30.83;76.58;100325.31;5038076;28;49362;-75
2021/07/24 07:08:21;;;;;;;;;0.00;0.00;;;;;31.13;75.21;100323.84;5036621;28;45362;-74
2021/07/24 07:10:48;;;;;;;;;0.00;0.00;;;;;31.42;75.08;100318.75;5007862;28;50757;-73
2021/07/24 07:13:13;;;;;;;;;0.00;0.00;;;;;31.74;73.94;100320.47;5033412;28;45457;-75
2021/07/24 07:15:39;;;;;;;;;0.00;0.00;;;;;32.00;72.73;100313.19;5031824;28;47594;-74
2021/07/24 07:18:04;;;;;;;;;0.00;0.00;;;;;32.22;71.88;100327.28;5034641;28;45292;-73
2021/07/24 07:20:29;;;;;;;;;0.00;0.00;;;;;32.27;69.80;100321.84;5025573;28;45373;-72
2021/07/24 07:22:54;;;;;;;;;0.00;0.00;;;;;32.26;70.63;100324.81;5028241;28;45441;-74
2021/07/24 07:25:20;;;;;;;;;0.00;0.00;;;;;32.23;68.54;100323.47;5037142;28;55157;-76
2021/07/24 07:27:45;;;;;;;;;0.00;0.00;;;;;32.25;68.69;100331.38;5041511;28;45336;-81
2021/07/24 07:30:13;;;;;;;;;0.00;0.00;;;;;32.33;69.17;100328.06;5029373;28;45368;-78
2021/07/24 07:32:39;;;;;;;;;0.00;0.00;;;;;32.59;67.91;100334.31;5039039;28;45479;-81
2021/07/24 07:35:05;;;;;;;;;0.00;0.00;;;;;32.86;68.16;100333.94;5036115;28;46484;-80
2021/07/24 07:37:31;;;;;;;;;0.00;0.00;;;;;33.04;66.36;100334.44;5033391;28;45222;-82
2021/07/24 07:39:56;;;;;;;;;0.00;0.00;;;;;33.28;65.56;100334.59;5031075;28;45218;-83
2021/07/24 07:42:21;;;;;;;;;0.00;0.00;;;;;33.49;64.61;100338.84;5048777;28;45501;-82
2021/07/24 07:44:47;;;;;;;;;0.00;0.00;;;;;33.85;64.45;100341.34;5036193;28;45357;-82
2021/07/24 07:47:12;;;;;;;;;0.00;0.00;;;;;34.17;62.78;100341.91;5040280;28;45351;-83
2021/07/24 07:49:38;;;;;;;;;0.00;0.00;;;;;34.49;61.22;100339.44;5033948;28;45571;-83
2021/07/24 07:52:05;;;;;;;;;0.00;0.00;;;;;34.70;60.56;100339.25;5038442;28;45549;-81
2021/07/24 07:54:30;;;;;;;;;0.00;0.00;;;;;35.02;59.73;100343.22;5037342;28;45486;-68
2021/07/24 07:56:57;;;;;;;;;0.00;0.00;;;;;35.38;58.86;100332.69;5042704;28;45389;-69
2021/07/24 07:59:23;;;;;;;;;0.00;0.00;;;;;35.63;57.67;100322.47;5043048;28;45422;-82
2021/07/24 08:01:48;;;;;;;;;0.00;0.00;;;;;35.89;56.20;100320.16;5026085;28;45224;-82
2021/07/24 08:04:13;;;;;;;;;0.00;0.00;;;;;36.10;54.41;100321.44;5028178;28;46175;-83
2021/07/24 08:06:39;;;;;;;;;0.00;0.00;;;;;36.30;52.83;100322.19;5021936;28;45228;-82
2021/07/24 08:09:04;;;;;;;;;0.00;0.00;;;;;36.47;52.19;100316.94;5041964;28;45516;-82
2021/07/24 08:11:29;;;;;;;;;0.00;0.00;;;;;36.59;51.69;100316.47;5041724;28;45332;-84
2021/07/24 08:13:56;;;;;;;;;0.00;0.00;;;;;36.73;51.32;100319.22;5040488;28;46836;-82
2021/07/24 08:16:21;;;;;;;;;0.00;0.00;;;;;37.06;49.90;100324.53;5040971;28;45364;-81
2021/07/24 08:18:46;;;;;;;;;0.00;0.00;;;;;37.22;48.59;100327.81;5041942;28;45508;-81
2021/07/24 08:21:12;;;;;;;;;0.00;0.00;;;;;37.31;46.55;100328.69;5040405;28;45340;-80
2021/07/24 08:23:37;;;;;;;;;0.00;0.00;;;;;37.55;45.59;100325.66;5035002;28;46207;-81
2021/07/24 08:26:03;;;;;;;;;0.00;0.00;;;;;37.68;45.96;100335.78;5028716;28;45391;-80
2021/07/24 08:28:29;;;;;;;;;0.00;0.00;;;;;37.83;45.64;100325.56;5040317;28;45328;-81
2021/07/24 08:30:54;;;;;;;;;0.00;0.00;;;;;38.05;45.96;100325.56;5033268;28;45569;-82
2021/07/24 08:33:20;;;;;;;;;0.00;0.00;;;;;38.25;43.96;100326.97;5041174;28;45364;-74
2021/07/24 08:35:45;;;;;;;;;0.00;0.00;;;;;38.47;43.61;100315.13;5027852;28;45330;-83
2021/07/24 08:38:10;;;;;;;;;0.00;0.00;;;;;38.73;43.13;100325.41;5040946;28;45334;-83
2021/07/24 08:40:38;;;;;;;;;0.00;0.00;;;;;38.95;42.59;100327.25;5028601;28;46066;-82
2021/07/24 08:43:05;;;;;;;;;0.00;0.00;;;;;39.12;41.04;100327.28;5009343;28;47085;-75
2021/07/24 08:45:31;;;;;;;;;0.00;0.00;;;;;39.33;39.67;100321.97;5025798;28;45350;-78
2021/07/24 08:47:58;;;;;;;;;0.00;0.00;;;;;39.53;40.43;100317.78;5034812;28;45582;-77
2021/07/24 08:50:23;;;;;;;;;0.00;0.00;;;;;39.65;40.08;100308.06;5009192;28;45525;-78
2021/07/24 08:52:54;;;;;;;;;0.00;0.00;;;;;39.75;38.89;100307.75;5040719;28;51401;-80
2021/07/24 08:55:23;;;;;;;;;0.00;0.00;;;;;40.02;38.96;100311.25;5036660;28;45207;-81
2021/07/24 08:57:53;;;;;;;;;0.00;0.00;;;;;40.31;37.36;100308.59;5040424;28;45403;-80
2021/07/24 09:00:21;;;;;;;;;1.00;1.00;;;;;40.63;36.91;100314.59;5042199;28;45470;-79
2021/07/24 09:02:48;;;;;;;;;0.00;0.00;;;;;41.36;34.73;100307.97;5040107;28;47118;-76
2021/07/24 09:05:15;;;;;;;;;0.00;0.00;;;;;42.78;33.89;100318.75;5040131;28;45361;-78
2021/07/24 09:07:46;;;;;;;;;0.00;0.00;;;;;44.63;31.59;100318.72;5032090;28;45323;-77
2021/07/24 09:10:12;;;;;;;;;0.00;0.00;;;;;46.32;27.54;100317.34;5035887;28;45259;-74
2021/07/24 09:12:42;;;;;;;;;0.00;0.00;;;;;46.17;25.85;100326.59;5032895;28;46320;-77
2021/07/24 09:15:09;;;;;;;;;0.00;0.00;;;;;47.10;25.34;100319.66;5039330;28;45461;-73
2021/07/24 09:17:35;;;;;;;;;0.00;0.00;;;;;47.88;24.21;100329.31;5029123;28;45456;-73
2021/07/24 09:20:00;;;;;;;;;0.00;0.00;;;;;47.98;24.56;100326.66;5027237;28;45214;-75
2021/07/24 09:22:26;;;;;;;;;0.00;0.00;;;;;48.07;23.79;100331.88;5020281;28;47961;-74
2021/07/24 09:25:08;;;;;;;;;0.00;0.00;;;;;47.90;23.08;100324.19;5020975;28;45381;-74
2021/07/24 09:27:41;;;;;;;;;0.00;0.00;;;;;47.31;24.13;100323.94;5038767;28;45321;-75
2021/07/24 09:30:10;;;;;;;;;0.00;0.00;;;;;46.92;24.00;100333.34;5033048;28;45444;-75
2021/07/24 09:32:37;;;;;;;;;0.00;0.00;;;;;47.00;25.29;100323.09;5030524;28;47728;-76
2021/07/24 09:35:03;;;;;;;;;0.00;0.00;;;;;47.58;24.34;100331.00;5021877;28;45930;-74
2021/07/24 09:37:30;;;;;;;;;1.00;0.00;;;;;47.52;23.93;100326.97;5039804;28;45339;-70
2021/07/24 09:40:22;;;;;;;;;0.00;0.00;;;;;46.22;23.38;100324.34;5040162;28;45227;-73
2021/07/24 09:42:48;;;;;;;;;0.00;0.00;;;;;45.77;23.29;100325.91;5038760;28;47043;-72
2021/07/24 09:45:13;;;;;;;;;0.00;0.00;;;;;44.80;24.02;100311.97;5039705;28;45289;-72
2021/07/24 09:47:38;;;;;;;;;0.00;0.00;;;;;43.66;25.80;100321.00;5039214;28;45411;-71
2021/07/24 09:50:14;;;;;;;;;0.00;0.00;;;;;43.45;26.71;100319.19;5039754;28;45414;-70
2021/07/24 09:52:53;;;;;;;;;0.00;0.00;;;;;43.60;26.16;100331.47;5039592;28;46117;-72
2021/07/24 09:55:23;;;;;;;;;0.00;0.00;;;;;45.82;24.09;100322.81;5021501;28;45290;-72
2021/07/24 09:57:55;;;;;;;;;0.00;0.00;;;;;48.10;23.80;100333.09;5020885;28;45434;-72
2021/07/24 10:00:24;;;;;;;;;0.00;0.00;;;;;47.95;22.55;100338.53;5010969;28;45738;-71
2021/07/24 10:03:03;;;;;;;;;0.00;0.00;;;;;47.95;22.22;100343.31;5030175;28;45553;-70
2021/07/24 10:05:37;;;;;;;;;0.00;0.00;;;;;47.46;21.50;100345.16;5013526;28;45434;-71
2021/07/24 10:08:05;;;;;;;;;0.00;0.00;;;;;48.58;21.64;100341.41;5039718;28;45225;-71
2021/07/24 10:10:35;;;;;;;;;0.00;0.00;;;;;49.13;21.18;100338.59;5037948;28;45396;-72
2021/07/24 10:13:02;;;;;;;;;0.00;0.00;;;;;49.42;19.55;100335.91;5011690;28;47355;-70
2021/07/24 10:15:34;;;;;;;;;0.00;0.00;;;;;48.81;19.69;100349.56;5032146;28;45253;-72
2021/07/24 10:18:00;;;;;;;;;0.00;0.00;;;;;47.87;21.15;100350.78;5030850;28;45499;-73
2021/07/24 10:20:25;;;;;;;;;0.00;0.00;;;;;46.49;21.94;100341.03;5014338;28;45401;-72
2021/07/24 10:22:51;;;;;;;;;0.00;0.00;;;;;45.79;21.89;100347.72;5039694;28;45409;-72
2021/07/24 10:25:21;;;;;;;;;0.50;0.00;;;;;45.21;23.06;100337.44;5038068;28;45264;-73
2021/07/24 10:27:48;;;;;;;;;0.00;0.00;;;;;44.74;23.22;100341.13;5011382;28;45457;-72
2021/07/24 10:30:14;;;;;;;;;0.00;0.00;;;;;44.37;23.69;100339.44;5019683;28;45597;-72
2021/07/24 10:32:42;;;;;;;;;0.00;0.00;;;;;43.73;24.18;100337.75;5028283;28;46264;-72
2021/07/24 10:35:08;;;;;;;;;0.00;0.00;;;;;43.80;24.79;100336.00;5033209;28;45458;-75
2021/07/24 10:37:39;;;;;;;;;0.00;0.00;;;;;44.10;24.49;100330.06;5035932;28;45392;-70
2021/07/24 10:40:24;;;;;;;;;0.00;0.00;;;;;45.49;23.65;100326.16;5042525;28;45273;-75
2021/07/24 10:42:51;;;;;;;;;0.00;0.00;;;;;46.06;22.73;100317.31;5024358;28;48257;-75
2021/07/24 10:45:32;;;;;;;;;0.00;0.00;;;;;44.98;22.68;100323.47;5042301;28;45450;-76
2021/07/24 10:48:12;;;;;;;;;0.00;0.00;;;;;43.75;23.45;100327.94;5040342;28;45323;-75
2021/07/24 10:50:50;;;;;;;;;0.00;0.00;;;;;42.81;24.30;100321.63;5042689;28;45338;-75
2021/07/24 10:53:15;;;;;;;;;0.00;0.00;;;;;43.00;25.16;100323.78;5040502;28;46704;-74
2021/07/24 10:55:42;;;;;;;;;0.00;0.00;;;;;44.54;24.85;100309.78;5041979;28;45210;-75
2021/07/24 10:58:07;;;;;;;;;0.00;0.00;;;;;45.40;23.02;100309.72;5030555;28;45343;-76
2021/07/24 11:00:35;;;;;;;;;0.00;0.00;;;;;45.25;22.18;100313.38;5037981;28;45435;-75
2021/07/24 11:03:01;;;;;;;;;0.00;0.00;;;;;45.06;22.67;100297.53;5040904;28;46340;-76
2021/07/24 11:05:28;;;;;;;;;0.00;0.00;;;;;44.82;22.77;100312.41;5037329;28;45321;-75
2021/07/24 11:07:54;;;;;;;;;0.00;0.00;;;;;44.17;23.07;100310.88;5014359;28;45280;-72
2021/07/24 11:10:20;;;;;;;;;0.00;0.00;;;;;43.85;24.27;100292.63;5017692;28;45478;-75
2021/07/24 11:12:46;;;;;;;;;0.00;0.00;;;;;43.79;24.67;100300.41;5012658;28;48034;-74
2021/07/24 11:15:17;;;;;;;;;0.00;0.00;;;;;43.67;24.66;100309.56;5034332;28;45276;-72
2021/07/24 11:17:43;;;;;;;;;0.00;0.00;;;;;43.27;25.16;100318.69;5014506;28;45481;-74
2021/07/24 11:20:08;;;;;;;;;0.00;0.00;;;;;43.00;25.49;100320.22;5030020;28;45315;-77
2021/07/24 11:22:38;;;;;;;;;0.00;0.00;;;;;42.60;25.90;100318.19;5050581;28;45469;-76
2021/07/24 11:25:03;;;;;;;;;0.00;0.00;;;;;42.12;25.88;100314.22;5035053;28;45344;-78
2021/07/24 11:27:33;;;;;;;;;0.00;0.00;;;;;41.85;25.72;100304.63;5035576;28;45295;-77